createdAt,value
2022-08-19T00:01:58.997Z,10.30
2022-08-19T00:04:29.055Z,11.98
2022-08-19T00:06:55.915Z,11.75
2022-08-19T00:09:23.381Z,11.35
2022-08-19T00:11:50.238Z,12.10
2022-08-19T00:14:17.673Z,11.75
2022-08-19T00:16:45.608Z,12.00
2022-08-19T00:19:13.480Z,12.65
2022-08-19T00:21:40.181Z,13.15
2022-08-19T00:24:08.229Z,13.13
2022-08-19T00:26:35.089Z,12.73
2022-08-19T00:29:08.042Z,13.18
2022-08-19T00:31:34.758Z,12.45
2022-08-19T00:34:04.293Z,13.73
2022-08-19T00:36:33.512Z,13.30
2022-08-19T00:39:02.832Z,13.00
2022-08-19T00:41:29.596Z,13.40
2022-08-19T00:44:15.557Z,13.30
2022-08-19T00:46:44.797Z,14.43
2022-08-19T00:49:43.158Z,14.90
2022-08-19T00:52:12.846Z,12.07
2022-08-19T00:54:39.859Z,12.98
2022-08-19T00:57:09.106Z,11.75
2022-08-19T01:00:00.751Z,11.82
2022-08-19T01:02:23.635Z,13.82
2022-08-19T01:04:50.302Z,13.23
2022-08-19T01:07:23.111Z,13.05
2022-08-19T01:09:50.621Z,14.38
2022-08-19T01:12:17.284Z,13.98
2022-08-19T01:14:43.950Z,13.73
2022-08-19T01:17:11.297Z,14.18
2022-08-19T01:19:43.691Z,14.13
2022-08-19T01:22:27.724Z,15.10
2022-08-19T01:24:55.572Z,16.10
2022-08-19T01:27:23.241Z,15.43
2022-08-19T01:29:51.409Z,17.48
2022-08-19T01:32:33.513Z,16.35
2022-08-19T01:35:01.017Z,16.08
2022-08-19T01:37:27.704Z,19.08
2022-08-19T01:39:54.446Z,19.25
2022-08-19T01:42:21.109Z,20.27
2022-08-19T01:44:57.152Z,19.38
2022-08-19T01:47:26.778Z,20.42
2022-08-19T01:49:53.445Z,18.80
2022-08-19T01:52:20.289Z,22.10
2022-08-19T01:54:46.965Z,24.73
2022-08-19T01:57:13.969Z,26.10
2022-08-19T01:59:41.099Z,27.27
2022-08-19T02:02:20.717Z,26.77
2022-08-19T02:04:47.369Z,28.02
2022-08-19T02:07:14.018Z,27.40
2022-08-19T02:09:40.702Z,29.25
2022-08-19T02:12:07.861Z,28.17
2022-08-19T02:14:35.702Z,31.23
2022-08-19T02:17:02.620Z,29.95
2022-08-19T02:19:29.305Z,30.58
2022-08-19T02:21:55.936Z,29.77
2022-08-19T02:24:22.603Z,27.75
2022-08-19T02:26:49.281Z,29.00
2022-08-19T02:29:15.999Z,30.48
2022-08-19T02:31:42.653Z,30.95
2022-08-19T02:34:09.322Z,29.35
2022-08-19T02:36:36.032Z,31.52
2022-08-19T02:39:08.902Z,31.92
2022-08-19T02:41:35.557Z,32.38
2022-08-19T02:44:28.826Z,32.10
2022-08-19T02:46:49.919Z,32.08
2022-08-19T02:49:18.599Z,32.85
2022-08-19T02:51:45.945Z,33.25
2022-08-19T02:54:13.053Z,33.97
2022-08-19T02:56:40.549Z,33.38
2022-08-19T02:59:07.323Z,34.78
2022-08-19T03:01:34.643Z,33.50
2022-08-19T03:04:03.768Z,34.38
2022-08-19T03:06:30.464Z,32.25
2022-08-19T03:08:57.258Z,34.63
2022-08-19T03:11:31.174Z,31.83
2022-08-19T03:13:58.275Z,33.17
2022-08-19T03:16:27.882Z,34.13
2022-08-19T03:18:54.709Z,32.40
2022-08-19T03:21:23.347Z,32.35
2022-08-19T03:23:50.200Z,30.45
2022-08-19T03:26:17.354Z,27.98
2022-08-19T03:28:51.494Z,30.73
2022-08-19T03:31:44.389Z,31.80
2022-08-19T03:34:08.195Z,29.52
2022-08-19T03:36:34.938Z,30.92
2022-08-19T03:39:01.825Z,32.30
2022-08-19T03:41:44.266Z,32.78
2022-08-19T03:44:18.452Z,30.73
2022-08-19T03:46:46.660Z,30.00
2022-08-19T03:49:14.292Z,28.48
2022-08-19T03:51:41.883Z,27.73
2022-08-19T03:54:11.372Z,29.52
2022-08-19T03:59:06.165Z,29.20
2022-08-19T04:01:35.052Z,25.08
2022-08-19T04:04:02.304Z,28.77
2022-08-19T04:06:31.766Z,27.80
2022-08-19T04:08:59.285Z,26.88
2022-08-19T04:11:43.211Z,26.38
2022-08-19T04:14:18.082Z,26.98
2022-08-19T04:16:44.924Z,23.27
2022-08-19T04:19:11.854Z,24.70
2022-08-19T04:21:38.513Z,25.05
2022-08-19T04:24:06.765Z,23.23
2022-08-19T04:26:38.403Z,23.35
2022-08-19T04:29:12.213Z,24.23
2022-08-19T04:31:39.826Z,21.63
2022-08-19T04:34:07.726Z,22.42
2022-08-19T04:36:35.925Z,22.42
2022-08-19T04:39:08.447Z,22.73
2022-08-19T04:41:35.283Z,24.10
2022-08-19T04:44:04.392Z,22.80
2022-08-19T04:46:39.970Z,20.85
2022-08-19T04:49:12.996Z,22.45
2022-08-19T04:51:41.896Z,24.70
2022-08-19T04:54:08.557Z,20.67
2022-08-19T04:56:35.295Z,21.77
2022-08-19T04:59:01.915Z,22.00
2022-08-19T05:01:28.903Z,23.42
2022-08-19T05:03:56.866Z,22.20
2022-08-19T05:06:23.800Z,21.40
2022-08-19T05:08:50.528Z,21.90
2022-08-19T05:11:26.314Z,22.08
2022-08-19T05:13:53.442Z,22.83
2022-08-19T05:16:21.390Z,21.90
2022-08-19T05:18:48.320Z,20.63
2022-08-19T05:21:17.001Z,22.42
2022-08-19T05:23:43.766Z,21.85
2022-08-19T05:26:10.476Z,21.23
2022-08-19T05:28:37.117Z,22.52
2022-08-19T05:31:06.471Z,20.10
2022-08-19T05:33:33.111Z,21.52
2022-08-19T05:35:59.750Z,21.42
2022-08-19T05:38:26.467Z,22.25
2022-08-19T05:40:53.137Z,20.90
2022-08-19T05:43:19.810Z,21.35
2022-08-19T05:45:46.571Z,20.58
2022-08-19T05:48:13.493Z,19.95
2022-08-19T05:50:40.970Z,21.25
2022-08-19T05:53:07.906Z,19.63
2022-08-19T05:55:34.678Z,19.73
2022-08-19T05:58:01.333Z,19.55
2022-08-19T06:00:28.041Z,19.00
2022-08-19T06:02:54.812Z,18.95
2022-08-19T06:05:21.638Z,19.25
2022-08-19T06:07:48.369Z,19.08
2022-08-19T06:10:15.307Z,18.48
2022-08-19T06:12:42.008Z,17.38
2022-08-19T06:15:14.091Z,18.80
2022-08-19T06:17:40.954Z,18.75
2022-08-19T06:20:09.559Z,17.33
2022-08-19T06:22:40.542Z,17.40
2022-08-19T06:25:07.757Z,17.08
2022-08-19T06:27:34.414Z,15.70
2022-08-19T06:30:02.073Z,17.92
2022-08-19T06:32:28.772Z,16.63
2022-08-19T06:34:55.536Z,15.30
2022-08-19T06:37:22.254Z,17.63
2022-08-19T06:39:49.607Z,15.88
2022-08-19T06:42:16.530Z,16.73
2022-08-19T06:44:48.301Z,17.95
2022-08-19T06:47:23.835Z,16.75
2022-08-19T06:49:54.151Z,16.92
2022-08-19T06:52:20.803Z,15.95
2022-08-19T06:54:56.552Z,16.75
2022-08-19T06:57:26.669Z,16.73
2022-08-19T06:59:53.429Z,17.65
2022-08-19T07:02:24.364Z,17.73
2022-08-19T07:04:52.726Z,18.15
2022-08-19T07:07:21.551Z,15.95
2022-08-19T07:09:52.264Z,17.90
2022-08-19T07:12:27.226Z,16.92
2022-08-19T07:14:53.861Z,15.32
2022-08-19T07:17:21.287Z,16.50
2022-08-19T07:19:48.414Z,16.23
2022-08-19T07:22:18.450Z,16.38
2022-08-19T07:24:51.579Z,16.20
2022-08-19T07:27:18.728Z,15.15
2022-08-19T07:29:57.181Z,15.82
2022-08-19T07:32:25.062Z,14.38
2022-08-19T07:34:52.223Z,15.25
2022-08-19T07:37:32.022Z,15.57
2022-08-19T07:40:01.351Z,15.57
2022-08-19T07:42:38.943Z,14.88
2022-08-19T07:45:16.718Z,13.75
2022-08-19T07:47:49.776Z,14.13
2022-08-19T07:50:31.603Z,14.00
2022-08-19T07:53:06.793Z,13.63
2022-08-19T07:55:41.794Z,14.80
2022-08-19T07:58:10.558Z,14.40
2022-08-19T08:00:37.582Z,14.60
2022-08-19T08:03:04.399Z,14.35
2022-08-19T08:05:31.045Z,15.98
2022-08-19T08:07:57.765Z,14.52
2022-08-19T08:10:24.700Z,14.00
2022-08-19T08:13:09.508Z,14.27
2022-08-19T08:15:42.690Z,14.50
2022-08-19T08:18:12.009Z,14.50
2022-08-19T08:20:39.129Z,14.95
2022-08-19T08:23:05.899Z,15.45
2022-08-19T08:25:34.210Z,13.60
2022-08-19T08:28:01.258Z,14.10
2022-08-19T08:30:31.003Z,13.63
2022-08-19T08:32:59.439Z,15.70
2022-08-19T08:35:26.126Z,15.98
2022-08-19T08:37:53.886Z,16.35
2022-08-19T08:40:29.743Z,14.02
2022-08-19T08:42:58.342Z,15.95
2022-08-19T08:45:25.089Z,17.33
2022-08-19T08:47:52.615Z,17.15
2022-08-19T08:50:43.622Z,17.30
2022-08-19T08:53:10.301Z,15.05
2022-08-19T08:55:37.391Z,16.20
2022-08-19T08:58:27.630Z,18.20
2022-08-19T09:00:54.318Z,16.17
2022-08-19T09:03:25.772Z,16.40
2022-08-19T09:06:12.631Z,16.45
2022-08-19T09:09:03.828Z,16.45
2022-08-19T09:11:42.603Z,15.45
2022-08-19T09:14:47.223Z,15.95
2022-08-19T09:17:06.625Z,15.25
2022-08-19T09:19:33.300Z,14.60
2022-08-19T09:22:00.428Z,13.85
2022-08-19T09:24:31.263Z,13.88
2022-08-19T09:26:58.041Z,13.82
2022-08-19T09:29:24.764Z,12.77
2022-08-19T09:31:51.440Z,12.80
2022-08-19T09:34:21.282Z,12.52
2022-08-19T09:36:48.987Z,12.43
2022-08-19T09:39:16.409Z,13.90
2022-08-19T09:41:47.604Z,14.15
2022-08-19T09:44:15.737Z,13.20
2022-08-19T09:46:42.633Z,11.40
2022-08-19T09:49:09.279Z,10.18
2022-08-19T09:51:35.968Z,11.02
2022-08-19T09:54:05.186Z,10.48
2022-08-19T09:56:32.227Z,9.73
2022-08-19T09:59:00.087Z,9.60
2022-08-19T10:01:31.279Z,9.30
2022-08-19T10:03:59.052Z,10.02
2022-08-19T10:06:45.626Z,9.05
2022-08-19T10:09:13.693Z,8.70
2022-08-19T10:11:45.301Z,8.40
2022-08-19T10:14:17.821Z,8.13
2022-08-19T10:16:44.525Z,9.70
2022-08-19T10:19:11.192Z,11.15
2022-08-19T10:21:37.840Z,10.27
2022-08-19T10:24:07.331Z,11.40
2022-08-19T10:26:38.226Z,11.52
2022-08-19T10:29:05.232Z,13.20
2022-08-19T10:32:00.656Z,13.93
2022-08-19T10:34:27.629Z,12.48
2022-08-19T10:36:56.367Z,10.55
2022-08-19T10:39:30.603Z,12.20
2022-08-19T10:41:57.540Z,12.88
2022-08-19T10:44:24.280Z,16.35
2022-08-19T10:46:51.009Z,17.08
2022-08-19T10:49:17.803Z,17.80
2022-08-19T10:51:48.031Z,20.70
2022-08-19T10:54:15.743Z,17.63
2022-08-19T10:56:42.581Z,19.95
2022-08-19T10:59:09.302Z,20.10
2022-08-19T11:01:36.275Z,20.48
2022-08-19T11:04:05.774Z,19.85
2022-08-19T11:06:32.909Z,21.05
2022-08-19T11:08:59.596Z,19.77
2022-08-19T11:11:29.117Z,21.02
2022-08-19T11:13:55.993Z,18.83
2022-08-19T11:16:23.982Z,18.65
2022-08-19T11:18:55.189Z,19.13
2022-08-19T11:21:33.932Z,19.38
2022-08-19T11:24:02.188Z,16.77
2022-08-19T11:26:29.861Z,18.23
2022-08-19T11:28:57.267Z,18.65
2022-08-19T11:31:28.934Z,17.85
2022-08-19T11:33:59.714Z,18.33
2022-08-19T11:36:26.501Z,18.45
2022-08-19T11:38:53.253Z,16.52
2022-08-19T11:41:20.805Z,16.40
2022-08-19T11:43:47.658Z,15.40
2022-08-19T11:46:15.120Z,14.77
2022-08-19T11:48:44.986Z,17.08
2022-08-19T11:51:14.102Z,14.55
2022-08-19T11:53:42.036Z,14.57
2022-08-19T11:56:09.168Z,14.35
2022-08-19T11:58:36.576Z,15.73
2022-08-19T12:01:07.268Z,14.38
2022-08-19T12:03:34.185Z,14.68
2022-08-19T12:06:05.863Z,14.35
2022-08-19T12:08:32.594Z,14.43
2022-08-19T12:10:59.290Z,13.55
2022-08-19T12:13:25.958Z,14.40
2022-08-19T12:15:52.685Z,14.32
2022-08-19T12:18:19.382Z,12.68
2022-08-19T12:20:46.069Z,12.02
2022-08-19T12:23:12.842Z,12.70
2022-08-19T12:25:44.091Z,13.05
2022-08-19T12:28:13.676Z,13.07
2022-08-19T12:30:40.419Z,12.25
2022-08-19T12:33:07.068Z,10.43
2022-08-19T12:35:43.995Z,11.02
2022-08-19T12:38:12.391Z,10.93
2022-08-19T12:40:39.598Z,9.98
2022-08-19T12:43:06.536Z,8.77
2022-08-19T12:45:34.403Z,8.93
2022-08-19T12:48:01.711Z,9.10
2022-08-19T12:50:51.357Z,9.73
2022-08-19T12:53:19.152Z,9.43
2022-08-19T12:55:45.817Z,10.65
2022-08-19T12:58:12.559Z,8.70
2022-08-19T13:00:39.463Z,9.90
2022-08-19T13:03:08.808Z,8.52
2022-08-19T13:05:35.562Z,7.97
2022-08-19T13:08:02.411Z,9.05
2022-08-19T13:10:33.317Z,8.90
2022-08-19T13:12:59.963Z,8.57
2022-08-19T13:15:26.634Z,9.93
2022-08-19T13:17:54.078Z,8.48
2022-08-19T13:20:21.196Z,9.32
2022-08-19T13:22:48.088Z,6.95
2022-08-19T13:25:15.104Z,7.20
2022-08-19T13:27:41.833Z,7.20
2022-08-19T13:30:09.854Z,6.93
2022-08-19T13:32:36.523Z,7.40
2022-08-19T13:35:04.180Z,6.15
2022-08-19T13:37:30.961Z,6.80
2022-08-19T13:39:57.718Z,6.80
2022-08-19T13:42:24.519Z,7.55
2022-08-19T13:44:51.193Z,6.82
2022-08-19T13:47:17.862Z,8.52
2022-08-19T13:49:44.539Z,8.82
2022-08-19T13:52:11.181Z,9.65
2022-08-19T13:54:37.879Z,10.52
2022-08-19T13:57:04.726Z,9.20
2022-08-19T13:59:31.491Z,10.20
2022-08-19T14:02:10.238Z,10.13
2022-08-19T14:04:36.945Z,9.30
2022-08-19T14:07:03.679Z,8.07
2022-08-19T14:09:35.070Z,9.40
2022-08-19T14:12:01.684Z,9.68
2022-08-19T14:14:28.339Z,8.57
2022-08-19T14:16:54.943Z,7.90
2022-08-19T14:19:21.705Z,7.40
2022-08-19T14:21:48.410Z,8.00
2022-08-19T14:24:15.051Z,8.52
2022-08-19T14:26:41.683Z,7.85
2022-08-19T14:29:08.834Z,7.82
2022-08-19T14:31:35.485Z,6.68
2022-08-19T14:34:02.138Z,7.82
2022-08-19T14:36:28.786Z,7.30
2022-08-19T14:38:55.453Z,8.00
2022-08-19T14:41:23.169Z,8.07
2022-08-19T14:43:51.306Z,6.50
2022-08-19T14:46:22.700Z,7.18
2022-08-19T14:48:50.684Z,7.10
2022-08-19T14:51:19.235Z,6.43
2022-08-19T14:53:46.097Z,7.18
2022-08-19T14:56:14.526Z,7.65
2022-08-19T14:58:41.759Z,7.13
2022-08-19T15:01:08.816Z,6.45
2022-08-19T15:03:35.461Z,6.25
2022-08-19T15:06:03.305Z,6.15
2022-08-19T15:08:30.635Z,4.13
2022-08-19T15:10:57.890Z,3.40
2022-08-19T15:13:27.536Z,3.53
2022-08-19T15:15:54.586Z,5.00
2022-08-19T15:18:21.403Z,4.40
2022-08-19T15:20:48.752Z,4.47
2022-08-19T15:23:17.236Z,2.67
2022-08-19T15:25:43.992Z,1.90
2022-08-19T15:28:11.205Z,1.30
2022-08-19T15:30:37.980Z,1.60
2022-08-19T15:33:04.809Z,1.83
2022-08-19T15:35:31.534Z,2.20
2022-08-19T15:37:58.254Z,2.38
2022-08-19T15:40:25.911Z,2.50
2022-08-19T15:42:52.653Z,3.10
2022-08-19T15:45:20.000Z,3.25
2022-08-19T15:47:46.664Z,2.10
2022-08-19T15:50:18.427Z,2.92
2022-08-19T15:52:49.533Z,2.00
2022-08-19T15:55:32.756Z,1.98
2022-08-19T15:58:02.196Z,2.10
2022-08-19T16:00:28.904Z,2.33
2022-08-19T16:02:55.581Z,1.90
2022-08-19T16:05:24.962Z,2.22
2022-08-19T16:10:26.387Z,2.40
2022-08-19T16:12:54.959Z,2.42
2022-08-19T16:15:21.796Z,2.70
2022-08-19T16:17:56.716Z,2.45
2022-08-19T16:22:53.852Z,2.40
2022-08-19T16:25:20.518Z,2.65
2022-08-19T16:28:06.321Z,3.20
2022-08-19T16:30:33.794Z,3.40
2022-08-19T16:33:00.438Z,3.15
2022-08-19T16:35:27.134Z,3.53
2022-08-19T16:37:53.930Z,2.97
2022-08-19T16:40:20.771Z,4.20
2022-08-19T16:42:47.506Z,3.83
2022-08-19T16:45:14.186Z,4.28
2022-08-19T16:47:40.860Z,4.13
2022-08-19T16:50:07.785Z,4.10
2022-08-19T16:52:34.785Z,4.00
2022-08-19T16:55:01.460Z,3.83
2022-08-19T16:57:28.090Z,3.88
2022-08-19T16:59:54.863Z,4.38
2022-08-19T17:02:22.312Z,4.50
2022-08-19T17:04:58.363Z,4.20
2022-08-19T17:07:27.193Z,5.07
2022-08-19T17:09:53.890Z,5.00
2022-08-19T17:12:22.314Z,5.50
2022-08-19T17:17:28.434Z,4.20
2022-08-19T17:19:55.886Z,4.57
2022-08-19T17:22:22.560Z,4.13
2022-08-19T17:24:49.229Z,3.47
2022-08-19T17:27:15.888Z,3.40
2022-08-19T17:29:46.792Z,2.67
2022-08-19T17:32:14.126Z,3.25
2022-08-19T17:34:40.746Z,2.80
2022-08-19T17:37:07.434Z,2.72
2022-08-19T17:39:37.204Z,2.42
2022-08-19T17:42:06.767Z,3.58
2022-08-19T17:44:35.061Z,3.88
2022-08-19T17:47:01.841Z,5.00
2022-08-19T17:49:28.526Z,5.53
2022-08-19T17:51:55.161Z,5.43
2022-08-19T17:54:21.849Z,4.35
2022-08-19T17:56:48.589Z,4.57
2022-08-19T17:59:15.522Z,5.13
2022-08-19T18:01:53.429Z,4.70
2022-08-19T18:04:22.131Z,4.55
2022-08-19T18:06:53.746Z,4.47
2022-08-19T18:09:25.311Z,3.90
2022-08-19T18:11:53.817Z,3.70
2022-08-19T18:14:25.602Z,4.05
2022-08-19T18:16:58.100Z,2.90
2022-08-19T18:19:25.319Z,2.35
2022-08-19T18:21:56.812Z,1.23
2022-08-19T18:24:23.486Z,1.27
2022-08-19T18:26:50.131Z,1.10
2022-08-19T18:29:16.762Z,1.10
2022-08-19T18:31:43.442Z,1.42
2022-08-19T18:34:10.448Z,1.40
2022-08-19T18:36:53.475Z,1.45
2022-08-19T18:39:20.751Z,1.17
2022-08-19T18:41:47.563Z,1.30
2022-08-19T18:44:14.185Z,1.10
2022-08-19T18:46:40.818Z,1.00
2022-08-19T18:49:08.372Z,0.98
2022-08-19T18:51:35.148Z,0.82
2022-08-19T18:54:01.777Z,1.42
2022-08-19T18:56:29.589Z,0.98
2022-08-19T18:58:56.210Z,1.00
2022-08-19T19:01:29.435Z,1.33
2022-08-19T19:03:58.186Z,1.30
2022-08-19T19:06:26.718Z,1.20
2022-08-19T19:08:53.572Z,1.05
2022-08-19T19:11:29.699Z,1.38
2022-08-19T19:13:56.653Z,1.50
2022-08-19T19:16:24.654Z,1.88
2022-08-19T19:18:51.493Z,1.70
2022-08-19T19:21:19.312Z,2.10
2022-08-19T19:23:46.083Z,1.90
2022-08-19T19:26:13.087Z,2.42
2022-08-19T19:28:40.443Z,2.08
2022-08-19T19:31:07.114Z,1.92
2022-08-19T19:33:33.756Z,2.13
2022-08-19T19:36:00.385Z,2.60
2022-08-19T19:38:27.038Z,2.72
2022-08-19T19:40:53.717Z,2.72
2022-08-19T19:43:20.411Z,2.35
2022-08-19T19:45:47.430Z,2.67
2022-08-19T19:48:14.225Z,2.72
2022-08-19T19:50:41.079Z,3.08
2022-08-19T19:53:07.745Z,3.20
2022-08-19T19:55:34.398Z,3.72
2022-08-19T19:58:01.042Z,3.90
2022-08-19T20:00:28.690Z,3.70
2022-08-19T20:02:55.348Z,3.72
2022-08-19T20:05:22.176Z,3.53
2022-08-19T20:07:49.612Z,3.60
2022-08-19T20:10:16.271Z,3.60
2022-08-19T20:12:42.909Z,3.50
2022-08-19T20:15:09.712Z,3.75
2022-08-19T20:17:36.478Z,3.83
2022-08-19T20:20:03.331Z,4.18
2022-08-19T20:22:33.778Z,3.22
2022-08-19T20:25:00.720Z,3.78
2022-08-19T20:27:27.353Z,4.75
2022-08-19T20:29:57.929Z,3.22
2022-08-19T20:32:24.566Z,3.08
2022-08-19T20:34:51.257Z,3.70
2022-08-19T20:37:17.899Z,3.40
2022-08-19T20:39:44.579Z,4.13
2022-08-19T20:42:11.250Z,3.70
2022-08-19T20:44:37.980Z,3.63
2022-08-19T20:47:04.933Z,4.43
2022-08-19T20:49:32.156Z,5.50
2022-08-19T20:51:58.829Z,5.68
2022-08-19T20:54:25.562Z,3.63
2022-08-19T20:56:52.206Z,4.05
2022-08-19T20:59:19.362Z,3.38
2022-08-19T21:01:46.450Z,4.35
2022-08-19T21:04:13.087Z,4.72
2022-08-19T21:06:39.741Z,4.97
2022-08-19T21:09:10.571Z,4.55
2022-08-19T21:11:37.194Z,4.50
2022-08-19T21:14:03.847Z,4.35
2022-08-19T21:16:30.522Z,5.15
2022-08-19T21:18:57.153Z,5.82
2022-08-19T21:21:23.789Z,6.00
2022-08-19T21:23:50.509Z,7.00
2022-08-19T21:26:17.286Z,6.00
2022-08-19T21:28:43.915Z,6.88
2022-08-19T21:31:10.638Z,7.18
2022-08-19T21:33:37.485Z,8.35
2022-08-19T21:36:04.669Z,7.40
2022-08-19T21:38:31.573Z,6.60
2022-08-19T21:40:58.214Z,7.68
2022-08-19T21:43:25.570Z,6.97
2022-08-19T21:45:52.262Z,7.15
2022-08-19T21:48:18.928Z,7.60
2022-08-19T21:50:48.202Z,6.20
2022-08-19T21:53:17.471Z,7.63
2022-08-19T21:58:11.231Z,7.65
2022-08-19T22:00:37.994Z,7.88
2022-08-19T22:03:05.083Z,7.55
2022-08-19T22:05:31.857Z,7.80
2022-08-19T22:07:59.227Z,6.93
2022-08-19T22:10:31.821Z,8.27
2022-08-19T22:12:58.458Z,9.07
2022-08-19T22:15:25.360Z,8.60
2022-08-19T22:17:52.043Z,8.70
2022-08-19T22:20:21.809Z,9.15
2022-08-19T22:22:54.395Z,8.23
2022-08-19T22:25:34.755Z,7.10
2022-08-19T22:28:02.115Z,7.32
2022-08-19T22:30:33.318Z,5.15
2022-08-19T22:33:01.418Z,7.07
2022-08-19T22:35:30.838Z,5.95
2022-08-19T22:40:28.161Z,5.50
2022-08-19T22:43:02.241Z,5.13
2022-08-19T22:45:29.199Z,6.53
2022-08-19T22:47:56.031Z,6.90
2022-08-19T22:50:23.144Z,6.53
2022-08-19T22:52:52.244Z,6.53
2022-08-19T22:55:19.084Z,7.18
2022-08-19T22:57:45.756Z,7.78
2022-08-19T23:00:12.908Z,7.90
2022-08-19T23:02:39.547Z,8.20
2022-08-19T23:05:22.000Z,7.90
2022-08-19T23:07:54.067Z,8.02
2022-08-19T23:10:27.324Z,8.07
2022-08-19T23:12:55.275Z,9.10
2022-08-19T23:15:28.692Z,8.50
2022-08-19T23:17:56.804Z,7.38
2022-08-19T23:20:23.921Z,8.07
2022-08-19T23:22:50.579Z,7.07
2022-08-19T23:25:19.388Z,6.25
2022-08-19T23:27:46.095Z,6.63
2022-08-19T23:30:12.804Z,6.95
2022-08-19T23:32:39.466Z,5.93
2022-08-19T23:35:06.368Z,5.90
2022-08-19T23:37:33.041Z,5.70
2022-08-19T23:39:59.722Z,5.68
2022-08-19T23:42:26.425Z,5.18
2022-08-19T23:44:53.140Z,5.13
2022-08-19T23:47:20.417Z,6.20
2022-08-19T23:49:47.061Z,6.15
2022-08-19T23:52:13.718Z,6.25
2022-08-19T23:54:42.944Z,5.95
2022-08-19T23:57:13.103Z,6.50
2022-08-19T23:59:40.726Z,5.97
